createdAt,value
2018-09-05T00:05:32.000Z,24.13
2018-09-05T00:15:32.000Z,24.12
2018-09-05T00:25:32.000Z,24.09
2018-09-05T00:35:32.000Z,24.07
2018-09-05T00:45:32.000Z,24.04
2018-09-05T00:55:32.000Z,24.01
2018-09-05T01:05:32.000Z,23.97
2018-09-05T01:15:32.000Z,23.93
2018-09-05T01:25:32.000Z,23.9
2018-09-05T01:35:32.000Z,23.89
2018-09-05T01:45:32.000Z,23.85
2018-09-05T01:55:32.000Z,23.81
2018-09-05T02:05:32.000Z,23.8
2018-09-05T02:15:32.000Z,23.76
2018-09-05T02:25:32.000Z,23.73
2018-09-05T02:35:32.000Z,23.7
2018-09-05T02:45:32.000Z,23.68
2018-09-05T02:55:32.000Z,23.63
2018-09-05T03:05:32.000Z,23.61
2018-09-05T03:15:32.000Z,23.57
2018-09-05T03:25:32.000Z,23.54
2018-09-05T03:35:32.000Z,23.5
2018-09-05T03:45:32.000Z,23.49
2018-09-05T03:55:32.000Z,23.45
2018-09-05T04:05:32.000Z,23.44
2018-09-05T04:15:32.000Z,23.41
2018-09-05T04:25:32.000Z,23.38
2018-09-05T04:35:32.000Z,23.35
2018-09-05T04:45:32.000Z,23.32
2018-09-05T04:55:32.000Z,23.3
2018-09-05T05:05:32.000Z,23.27
2018-09-05T05:15:32.000Z,23.24
2018-09-05T05:25:32.000Z,23.22
2018-09-05T05:35:33.000Z,23.2
2018-09-05T05:45:33.000Z,23.18
2018-09-05T05:55:33.000Z,23.17
2018-09-05T06:05:33.000Z,23.16
2018-09-05T06:15:33.000Z,23.16
2018-09-05T06:25:33.000Z,23.16
2018-09-05T06:35:33.000Z,23.16
2018-09-05T06:45:33.000Z,23.15
2018-09-05T06:55:33.000Z,23.21
2018-09-05T07:05:33.000Z,23.26
2018-09-05T07:15:33.000Z,23.31
2018-09-05T07:25:33.000Z,23.33
2018-09-05T07:35:33.000Z,23.42
2018-09-05T07:45:33.000Z,23.46
2018-09-05T07:55:33.000Z,23.57
2018-09-05T08:05:33.000Z,23.63
2018-09-05T08:15:33.000Z,23.76
2018-09-05T08:25:33.000Z,23.88
2018-09-05T08:35:33.000Z,24.01
2018-09-05T08:45:33.000Z,24.14
2018-09-05T09:05:33.000Z,24.26
2018-09-05T09:15:33.000Z,24.35
2018-09-05T09:25:33.000Z,24.5
2018-09-05T09:35:33.000Z,24.67
2018-09-05T09:45:33.000Z,24.8
2018-09-05T09:55:33.000Z,24.93
2018-09-05T10:05:33.000Z,25.14
2018-09-05T10:15:33.000Z,25.32
2018-09-05T10:25:33.000Z,25.46
2018-09-05T10:35:33.000Z,25.61
2018-09-05T10:45:33.000Z,25.7
2018-09-05T10:55:33.000Z,25.77
2018-09-05T11:05:33.000Z,25.89
2018-09-05T11:15:33.000Z,25.93
2018-09-05T11:25:33.000Z,26.06
2018-09-05T11:45:33.000Z,26.16
2018-09-05T11:55:33.000Z,26.24
2018-09-05T12:05:33.000Z,26.24
2018-09-05T12:15:33.000Z,26.27
2018-09-05T12:25:33.000Z,26.29
2018-09-05T12:35:33.000Z,26.32
2018-09-05T12:45:33.000Z,26.34
2018-09-05T12:55:33.000Z,26.31
2018-09-05T13:05:33.000Z,26.3
2018-09-05T13:15:33.000Z,26.23
2018-09-05T13:25:33.000Z,26.2
2018-09-05T13:35:33.000Z,26.21
2018-09-05T13:45:34.000Z,26.37
2018-09-05T13:55:33.000Z,26.3
2018-09-05T14:05:34.000Z,26.26
2018-09-05T14:15:34.000Z,26.25
2018-09-05T14:25:34.000Z,26.23
2018-09-05T14:35:34.000Z,26.3
2018-09-05T14:45:34.000Z,26.22
2018-09-05T14:55:34.000Z,26.14
2018-09-05T15:05:34.000Z,26.19
2018-09-05T15:15:34.000Z,26.17
2018-09-05T15:25:34.000Z,26.14
2018-09-05T15:35:34.000Z,26.19
2018-09-05T15:45:34.000Z,26.12
2018-09-05T15:55:34.000Z,26.05
2018-09-05T16:05:34.000Z,26.08
2018-09-05T16:15:34.000Z,26.04
2018-09-05T16:25:34.000Z,26.01
2018-09-05T16:35:34.000Z,25.95
2018-09-05T16:45:34.000Z,25.93
2018-09-05T16:55:34.000Z,25.9
2018-09-05T17:05:34.000Z,25.87
2018-09-05T17:15:34.000Z,25.83
2018-09-05T17:25:34.000Z,25.77
2018-09-05T17:35:34.000Z,25.72
2018-09-05T17:45:34.000Z,25.69
2018-09-05T17:55:34.000Z,25.61
2018-09-05T18:05:34.000Z,25.57
2018-09-05T18:15:34.000Z,25.48
2018-09-05T18:25:34.000Z,25.44
2018-09-05T18:35:34.000Z,25.37
2018-09-05T18:45:34.000Z,25.32
2018-09-05T18:55:34.000Z,25.25
2018-09-05T19:05:34.000Z,25.27
2018-09-05T19:15:34.000Z,25.16
2018-09-05T19:25:34.000Z,25.19
2018-09-05T19:35:34.000Z,25.19
2018-09-05T19:45:34.000Z,25.15
2018-09-05T19:55:34.000Z,25.12
2018-09-05T20:05:34.000Z,25.11
2018-09-05T20:15:34.000Z,25.08
2018-09-05T20:25:34.000Z,25.04
2018-09-05T20:35:34.000Z,25.03
2018-09-05T20:45:34.000Z,25.01
2018-09-05T20:55:34.000Z,25
2018-09-05T21:05:34.000Z,24.95
2018-09-05T21:15:34.000Z,24.91
2018-09-05T21:25:34.000Z,24.89
2018-09-05T21:35:34.000Z,24.82
2018-09-05T21:45:34.000Z,24.8
2018-09-05T21:55:34.000Z,24.76
2018-09-05T22:05:35.000Z,24.82
2018-09-05T22:15:35.000Z,24.86
2018-09-05T22:25:35.000Z,24.88
2018-09-05T22:35:35.000Z,24.86
2018-09-05T22:45:35.000Z,24.9
2018-09-05T22:55:35.000Z,24.89
2018-09-05T23:05:35.000Z,24.9
2018-09-05T23:15:35.000Z,24.88
2018-09-05T23:25:35.000Z,24.91
2018-09-05T23:35:35.000Z,24.78
2018-09-05T23:45:36.000Z,24.74
2018-09-05T23:55:35.000Z,24.69
